Terminal Aerodrome Forecast
Issued by NWS Austin/San Antonio, TX

Home | Current Version | Previous Version | Text Only | Print | Product List | Glossary On
Versions: 1 2 3 4 5 6 7 8 9 10 11 12 13 14 15 16 17 18 19 20 21 22 23 24 25 26
000
FTUS44 KEWX 181700
TAFSAT
TAF
KSAT 181739Z 1818/1924 17010KT P6SM SCT035 BKN250
     FM182100 10010KT P6SM SCT035 BKN250
      TEMPO 1822/1902 5SM TSRA BKN035CB
     FM190500 10005KT P6SM BKN015 OVC035 PROB30 1905/1909 TSRA
      BKN020 OVC040CB
     FM191700 11010KT P6SM BKN035=

USA.gov is the U.S. government's official web portal to all federal, state and local government web resources and services.